Fallon, NV

1:29 PM PDT on October 01, 2016 (GMT -0700)
North Fallon-Rice Rd | | Change Station

Elev 3980 ft 39.50 °N, 118.78 °W | Updated 4 seconds ago

Partly Cloudy
Partly Cloudy
78.3 °F
Feels Like 77 °F
N
4.5
Wind Variable Wind from NW
Gusts 8.3 mph

Today
High -- | Low -- °F
--% Chance of Precip.
Yesterday
High -- | Low -- °F
Precip. -- in
Pressure 29.94 in
Visibility 10.0 miles
Clouds Few 10000 ft
Heat Index 77 °F
Dew Point 27 °F
Humidity 15%
Rainfall 0.00 in
Snow Depth Not available.
6:51 AM 6:36 PM
New Moon, 1% visible
METAR KNFL 011956Z VRB04KT 10SM FEW100 23/M01 A3002 RMK AO2 SLP137 T02281011
Pressure 29.94 in
Visibility 10.0 miles
Clouds Few 10000 ft
Heat Index 77 °F
Dew Point 27 °F
Humidity 15%
Rainfall 0.00 in
Snow Depth Not available.
6:51 AM 6:36 PM
New Moon, 1% visible
METAR KNFL 011956Z VRB04KT 10SM FEW100 23/M01 A3002 RMK AO2 SLP137 T02281011

10-Day Weather Forecast

Almanac

Astronomy

Oct. 01, 2016 Rise Set
Actual Time
Civil Twilight
Nautical Twilight
Astronomical Twilight
Moon
Length of Visible Light
Length of Day
Tomorrow will be .
, % of the Moon is Illuminated

Today's Extremes

State Highs State Lows

Community

WunderPhotos

Upload Photos

1,943,013 photos uploaded!

WunderBlog® & News

Nearby

Air Quality

  Air Quality AQ Index Pollutant
Not available.

Snow Depth

Station Depth Elevation

Earthquake Activity

City Distance Mag. Time & Date
Minimum magnitude displayed is 2.5.

Coastal Water Temperatures

Place Temperature

Stations

Nearby Weather Stations

Station Location Temp. Windchill Dew Point Humidity Wind Precip. Elev Updated Type
                   

Watches & Warnings

There are currently no watches in effect.